createdAt,value
2022-08-02T00:00:34.684Z,21.80
2022-08-02T00:03:01.904Z,21.90
2022-08-02T00:05:29.113Z,22.00
2022-08-02T00:07:56.313Z,21.90
2022-08-02T00:10:23.523Z,21.80
2022-08-02T00:12:50.726Z,21.90
2022-08-02T00:15:20.430Z,21.90
2022-08-02T00:17:48.702Z,22.00
2022-08-02T00:20:16.583Z,22.00
2022-08-02T00:22:43.809Z,22.00
2022-08-02T00:25:11.341Z,21.70
2022-08-02T00:27:38.576Z,21.60
2022-08-02T00:30:06.341Z,21.50
2022-08-02T00:32:33.645Z,21.10
2022-08-02T00:35:00.863Z,21.50
2022-08-02T00:37:28.076Z,21.70
2022-08-02T00:39:55.294Z,21.90
2022-08-02T00:42:22.495Z,22.10
2022-08-02T00:44:49.791Z,22.20
2022-08-02T00:47:19.472Z,22.10
2022-08-02T00:49:47.295Z,22.20
2022-08-02T00:52:14.939Z,22.30
2022-08-02T00:54:42.413Z,22.40
2022-08-02T00:57:09.639Z,22.60
2022-08-02T00:59:36.890Z,22.50
2022-08-02T01:02:16.454Z,22.40
2022-08-02T01:06:10.071Z,22.50
2022-08-02T01:11:36.006Z,22.40
2022-08-02T01:14:11.723Z,22.50
2022-08-02T01:17:03.848Z,22.50
2022-08-02T01:19:43.974Z,22.30
2022-08-02T01:23:01.580Z,22.10
2022-08-02T01:25:53.601Z,22.10
2022-08-02T01:28:30.311Z,22.10
2022-08-02T01:31:17.043Z,21.90
2022-08-02T01:34:13.456Z,21.50
2022-08-02T01:37:00.456Z,21.60
2022-08-02T01:39:38.385Z,21.70
2022-08-02T01:43:12.767Z,21.80
2022-08-02T01:49:30.289Z,21.50
2022-08-02T01:52:26.090Z,21.20
2022-08-02T01:55:34.982Z,21.30
2022-08-02T01:58:26.067Z,21.10
2022-08-02T02:01:16.743Z,21.10
2022-08-02T02:04:25.595Z,21.20
2022-08-02T02:07:26.663Z,21.40
2022-08-02T02:10:15.721Z,21.30
2022-08-02T02:12:56.451Z,21.20
2022-08-02T02:15:27.537Z,21.00
2022-08-02T02:18:12.317Z,20.90
2022-08-02T02:20:46.316Z,20.80
2022-08-02T02:23:26.503Z,20.60
2022-08-02T02:26:13.781Z,20.60
2022-08-02T02:28:48.712Z,20.40
2022-08-02T02:31:29.770Z,20.30
2022-08-02T02:34:10.668Z,20.30
2022-08-02T02:36:44.998Z,20.20
2022-08-02T02:39:13.937Z,20.20
2022-08-02T02:41:42.922Z,20.20
2022-08-02T02:44:13.761Z,20.30
2022-08-02T02:46:41.439Z,20.30
2022-08-02T02:49:11.559Z,20.30
2022-08-02T02:51:42.944Z,20.10
2022-08-02T02:54:30.113Z,20.10
2022-08-02T02:56:59.319Z,20.10
2022-08-02T02:59:26.894Z,20.20
2022-08-02T03:01:56.056Z,20.30
2022-08-02T03:04:25.242Z,20.30
2022-08-02T03:06:52.534Z,20.30
2022-08-02T03:09:19.780Z,20.30
2022-08-02T03:11:47.212Z,20.60
2022-08-02T03:14:15.066Z,20.30
2022-08-02T03:16:47.444Z,20.50
2022-08-02T03:19:15.220Z,20.60
2022-08-02T03:21:43.400Z,20.70
2022-08-02T03:24:10.977Z,20.80
2022-08-02T03:26:38.357Z,20.80
2022-08-02T03:29:10.925Z,20.60
2022-08-02T03:31:41.370Z,20.80
2022-08-02T03:34:08.773Z,20.70
2022-08-02T03:36:36.565Z,20.60
2022-08-02T03:39:04.436Z,20.40
2022-08-02T03:41:32.067Z,20.30
2022-08-02T03:43:59.658Z,20.20
2022-08-02T03:46:27.130Z,20.00
2022-08-02T03:48:55.431Z,20.10
2022-08-02T03:51:23.405Z,20.10
2022-08-02T03:53:50.746Z,20.30
2022-08-02T03:56:18.254Z,20.40
2022-08-02T03:58:49.280Z,20.50
2022-08-02T04:01:17.254Z,20.60
2022-08-02T04:03:44.721Z,20.50
2022-08-02T04:06:11.949Z,20.40
2022-08-02T04:08:39.237Z,20.50
2022-08-02T04:11:25.622Z,20.60
2022-08-02T04:13:54.667Z,20.50
2022-08-02T04:16:45.745Z,20.40
2022-08-02T04:19:28.334Z,20.40
2022-08-02T04:21:56.579Z,20.30
2022-08-02T04:24:28.166Z,20.40
2022-08-02T04:27:06.547Z,20.30
2022-08-02T04:29:47.879Z,20.30
2022-08-02T04:32:16.148Z,20.20
2022-08-02T04:34:54.215Z,20.30
2022-08-02T04:37:31.932Z,20.40
2022-08-02T04:39:59.206Z,20.60
2022-08-02T04:42:27.382Z,20.70
2022-08-02T04:44:54.673Z,20.80
2022-08-02T04:47:54.446Z,20.90
2022-08-02T04:50:10.092Z,21.00
2022-08-02T04:52:37.332Z,21.00
2022-08-02T04:55:04.869Z,20.90
2022-08-02T04:57:53.044Z,20.70
2022-08-02T05:00:20.687Z,20.90
2022-08-02T05:02:48.385Z,20.90
2022-08-02T05:05:16.170Z,21.00
2022-08-02T05:07:43.372Z,21.10
2022-08-02T05:10:10.881Z,21.20
2022-08-02T05:12:41.227Z,21.10
2022-08-02T05:15:12.978Z,21.30
2022-08-02T05:17:45.541Z,21.50
2022-08-02T05:20:16.638Z,21.20
2022-08-02T05:22:44.450Z,21.30
2022-08-02T05:25:12.116Z,21.60
2022-08-02T05:27:39.580Z,21.70
2022-08-02T05:30:07.573Z,21.70
2022-08-02T05:32:35.186Z,21.70
2022-08-02T05:35:03.346Z,21.80
2022-08-02T05:37:33.010Z,21.80
2022-08-02T05:40:01.002Z,21.90
2022-08-02T05:42:32.327Z,21.80
2022-08-02T05:44:59.696Z,21.90
2022-08-02T05:47:26.914Z,21.60
2022-08-02T05:49:54.188Z,21.70
2022-08-02T05:52:24.929Z,21.90
2022-08-02T05:55:09.885Z,22.00
2022-08-02T05:57:58.350Z,22.10
2022-08-02T06:00:26.679Z,22.30
2022-08-02T06:03:05.841Z,22.30
2022-08-02T06:05:36.092Z,22.40
2022-08-02T06:08:04.474Z,22.50
2022-08-02T06:10:36.419Z,22.50
2022-08-02T06:13:14.373Z,22.70
2022-08-02T06:15:42.554Z,22.70
2022-08-02T06:18:28.336Z,23.00
2022-08-02T06:22:42.130Z,23.00
2022-08-02T06:23:57.385Z,23.30
2022-08-02T06:26:27.074Z,23.40
2022-08-02T06:28:55.836Z,23.60
2022-08-02T06:31:23.632Z,23.70
2022-08-02T06:33:51.030Z,23.80
2022-08-02T06:36:49.082Z,23.80
2022-08-02T06:39:33.688Z,24.00
2022-08-02T06:42:03.915Z,23.80
2022-08-02T06:44:49.532Z,23.70
2022-08-02T06:47:18.160Z,23.30
2022-08-02T06:49:51.574Z,23.20
2022-08-02T06:52:28.340Z,23.10
2022-08-02T06:55:00.525Z,23.20
2022-08-02T06:57:28.309Z,23.20
2022-08-02T06:59:55.913Z,23.40
2022-08-02T07:02:23.488Z,23.30
2022-08-02T07:04:51.141Z,23.20
2022-08-02T07:07:18.471Z,23.20
2022-08-02T07:09:57.017Z,23.80
2022-08-02T07:12:29.272Z,24.10
2022-08-02T07:14:56.937Z,24.30
2022-08-02T07:17:24.150Z,24.20
2022-08-02T07:19:51.447Z,24.30
2022-08-02T07:22:20.219Z,24.20
2022-08-02T07:24:47.460Z,24.30
2022-08-02T07:27:14.688Z,24.10
2022-08-02T07:29:46.302Z,24.20
2022-08-02T07:32:15.771Z,24.40
2022-08-02T07:34:44.778Z,24.90
2022-08-02T07:37:35.823Z,24.70
2022-08-02T07:40:13.572Z,25.00
2022-08-02T07:42:43.314Z,25.20
2022-08-02T07:45:11.552Z,25.30
2022-08-02T07:47:39.815Z,25.30
2022-08-02T07:50:08.690Z,25.90
2022-08-02T07:52:36.072Z,26.30
2022-08-02T07:55:03.678Z,27.20
2022-08-02T07:57:31.029Z,28.10
2022-08-02T07:59:58.355Z,28.90
2022-08-02T08:02:25.685Z,29.00
2022-08-02T08:04:53.253Z,30.40
2022-08-02T08:07:20.582Z,30.80
2022-08-02T08:09:50.845Z,31.80
2022-08-02T08:12:23.741Z,32.50
2022-08-02T08:14:51.059Z,32.30
2022-08-02T08:17:18.382Z,31.40
2022-08-02T08:19:50.847Z,30.20
2022-08-02T08:22:22.554Z,30.90
2022-08-02T08:24:50.703Z,30.90
2022-08-02T08:27:18.472Z,30.30
2022-08-02T08:29:46.261Z,30.30
2022-08-02T08:32:17.212Z,31.00
2022-08-02T08:34:46.431Z,29.10
2022-08-02T08:37:16.388Z,28.50
2022-08-02T08:39:58.276Z,30.10
2022-08-02T08:42:27.328Z,31.40
2022-08-02T08:44:56.551Z,31.20
2022-08-02T08:47:24.744Z,32.20
2022-08-02T08:49:53.355Z,32.50
2022-08-02T08:52:20.800Z,34.50
2022-08-02T08:54:48.608Z,34.40
2022-08-02T08:57:18.054Z,33.90
2022-08-02T08:59:45.613Z,34.30
2022-08-02T09:02:16.357Z,34.50
2022-08-02T09:04:54.737Z,33.70
2022-08-02T09:07:25.594Z,33.80
2022-08-02T09:09:52.736Z,33.90
2022-08-02T09:12:22.278Z,33.60
2022-08-02T09:14:50.362Z,34.20
2022-08-02T09:17:18.004Z,34.70
2022-08-02T09:19:46.004Z,34.60
2022-08-02T09:22:15.431Z,33.50
2022-08-02T09:24:50.052Z,33.80
2022-08-02T09:27:17.881Z,31.30
2022-08-02T09:30:12.684Z,31.60
2022-08-02T09:32:46.485Z,32.70
2022-08-02T09:35:15.287Z,31.80
2022-08-02T09:37:45.729Z,31.20
2022-08-02T09:40:15.806Z,30.70
2022-08-02T09:42:57.886Z,30.10
2022-08-02T09:45:29.855Z,29.40
2022-08-02T09:47:56.986Z,28.90
2022-08-02T09:50:24.135Z,28.90
2022-08-02T09:52:51.266Z,29.40
2022-08-02T09:55:18.414Z,29.10
2022-08-02T09:57:51.160Z,27.60
2022-08-02T10:00:31.870Z,27.50
2022-08-02T10:03:08.548Z,27.90
2022-08-02T10:05:55.611Z,27.30
2022-08-02T10:08:23.897Z,27.80
2022-08-02T10:11:00.454Z,28.50
2022-08-02T10:13:31.552Z,28.40
2022-08-02T10:15:58.788Z,27.80
2022-08-02T10:18:38.082Z,27.50
2022-08-02T10:21:16.244Z,27.90
2022-08-02T10:23:44.122Z,28.70
2022-08-02T10:26:13.230Z,28.70
2022-08-02T10:28:40.377Z,28.50
2022-08-02T10:31:07.520Z,28.80
2022-08-02T10:33:35.182Z,28.90
2022-08-02T10:36:06.697Z,29.30
2022-08-02T10:38:35.456Z,28.70
2022-08-02T10:41:03.024Z,28.80
2022-08-02T10:43:36.355Z,28.70
2022-08-02T10:46:22.041Z,28.80
2022-08-02T10:49:36.263Z,28.70
2022-08-02T10:51:55.176Z,29.00
2022-08-02T10:54:23.580Z,28.90
2022-08-02T10:56:51.487Z,28.60
2022-08-02T10:59:27.671Z,28.50
2022-08-02T11:02:01.934Z,28.90
2022-08-02T11:04:29.908Z,29.10
2022-08-02T11:07:06.764Z,28.90
2022-08-02T11:09:34.133Z,29.30
2022-08-02T11:12:01.385Z,29.40
2022-08-02T11:14:28.565Z,29.20
2022-08-02T11:16:55.660Z,29.60
2022-08-02T11:19:23.258Z,29.50
2022-08-02T11:22:11.283Z,29.50
2022-08-02T11:24:39.481Z,30.10
2022-08-02T11:27:09.557Z,30.20
2022-08-02T11:29:40.912Z,29.50
2022-08-02T11:32:18.415Z,29.30
2022-08-02T11:34:46.001Z,29.70
2022-08-02T11:37:13.375Z,30.10
2022-08-02T11:39:40.531Z,30.10
2022-08-02T11:42:07.690Z,30.00
2022-08-02T11:44:41.405Z,30.20
2022-08-02T11:47:08.613Z,30.40
2022-08-02T11:49:36.905Z,30.60
2022-08-02T11:52:05.424Z,30.50
2022-08-02T11:54:35.248Z,30.20
2022-08-02T11:57:18.506Z,30.60
2022-08-02T11:59:48.171Z,31.10
2022-08-02T12:02:15.638Z,31.00
2022-08-02T12:04:42.831Z,31.00
2022-08-02T12:07:11.417Z,30.60
2022-08-02T12:09:42.087Z,30.40
2022-08-02T12:12:09.528Z,30.30
2022-08-02T12:14:42.495Z,30.60
2022-08-02T12:17:28.474Z,30.70
2022-08-02T12:19:55.628Z,30.70
2022-08-02T12:22:27.177Z,30.80
2022-08-02T12:24:55.857Z,31.30
2022-08-02T12:27:29.071Z,31.10
2022-08-02T12:30:00.457Z,31.30
2022-08-02T12:32:27.625Z,31.00
2022-08-02T12:35:25.918Z,31.30
2022-08-02T12:37:54.208Z,31.50
2022-08-02T12:40:26.184Z,31.80
2022-08-02T12:42:55.330Z,30.40
2022-08-02T12:45:22.830Z,30.70
2022-08-02T12:47:51.567Z,31.40
2022-08-02T12:50:20.715Z,31.60
2022-08-02T12:52:48.584Z,31.60
2022-08-02T12:55:20.007Z,32.20
2022-08-02T12:57:53.553Z,31.90
2022-08-02T13:00:24.691Z,32.00
2022-08-02T13:02:51.983Z,31.60
2022-08-02T13:05:19.384Z,32.00
2022-08-02T13:07:46.528Z,32.80
2022-08-02T13:10:13.786Z,32.60
2022-08-02T13:12:40.931Z,32.90
2022-08-02T13:15:12.493Z,32.20
2022-08-02T13:17:55.566Z,32.00
2022-08-02T13:20:22.720Z,31.90
2022-08-02T13:22:53.479Z,31.90
2022-08-02T13:25:22.809Z,32.50
2022-08-02T13:27:50.593Z,32.90
2022-08-02T13:30:35.702Z,33.30
2022-08-02T13:33:10.135Z,33.20
2022-08-02T13:36:00.814Z,33.20
2022-08-02T13:38:36.319Z,33.40
2022-08-02T13:41:09.304Z,33.00
2022-08-02T13:43:53.462Z,33.20
2022-08-02T13:46:29.080Z,32.00
2022-08-02T13:48:57.056Z,32.80
2022-08-02T13:51:24.244Z,32.70
2022-08-02T13:53:51.401Z,33.30
2022-08-02T13:56:18.557Z,33.30
2022-08-02T13:58:45.810Z,33.50
2022-08-02T14:01:13.080Z,33.70
2022-08-02T14:04:05.627Z,33.30
2022-08-02T14:06:27.459Z,32.80
2022-08-02T14:08:54.671Z,32.20
2022-08-02T14:11:21.827Z,33.10
2022-08-02T14:13:48.995Z,33.50
2022-08-02T14:16:16.144Z,33.70
2022-08-02T14:18:43.282Z,34.00
2022-08-02T14:21:10.443Z,33.50
2022-08-02T14:23:49.810Z,34.00
2022-08-02T14:26:27.497Z,33.60
2022-08-02T14:28:55.486Z,32.90
2022-08-02T14:31:22.677Z,33.40
2022-08-02T14:33:49.847Z,33.30
2022-08-02T14:36:27.461Z,33.40
2022-08-02T14:38:55.635Z,33.50
2022-08-02T14:41:22.920Z,33.30
2022-08-02T14:44:05.167Z,33.20
2022-08-02T14:46:32.912Z,33.50
2022-08-02T14:49:02.297Z,33.70
2022-08-02T14:51:30.295Z,33.80
2022-08-02T14:54:02.377Z,33.70
2022-08-02T14:56:30.878Z,33.90
2022-08-02T14:58:58.112Z,34.00
2022-08-02T15:01:26.057Z,34.40
2022-08-02T15:03:53.666Z,34.90
2022-08-02T15:06:20.935Z,34.80
2022-08-02T15:08:48.095Z,34.80
2022-08-02T15:11:15.265Z,35.60
2022-08-02T15:13:42.901Z,35.40
2022-08-02T15:16:10.398Z,36.10
2022-08-02T15:18:37.552Z,36.50
2022-08-02T15:21:40.678Z,36.40
2022-08-02T15:23:51.960Z,37.00
2022-08-02T15:26:20.949Z,37.40
2022-08-02T15:28:48.512Z,37.50
2022-08-02T15:31:33.245Z,37.60
2022-08-02T15:34:01.053Z,37.40
2022-08-02T15:36:29.953Z,37.20
2022-08-02T15:38:57.843Z,38.00
2022-08-02T15:41:25.082Z,36.10
2022-08-02T15:44:00.622Z,36.70
2022-08-02T15:46:30.727Z,37.20
2022-08-02T15:48:59.957Z,36.80
2022-08-02T15:51:27.292Z,36.80
2022-08-02T15:53:54.465Z,36.80
2022-08-02T15:56:23.819Z,36.70
2022-08-02T15:58:51.909Z,36.80
2022-08-02T16:01:23.373Z,37.10
2022-08-02T16:03:50.590Z,37.30
2022-08-02T16:06:17.741Z,36.80
2022-08-02T16:08:53.602Z,35.80
2022-08-02T16:11:22.024Z,35.00
2022-08-02T16:13:55.447Z,34.80
2022-08-02T16:16:23.246Z,33.70
2022-08-02T16:18:50.520Z,32.80
2022-08-02T16:21:17.766Z,33.00
2022-08-02T16:24:01.357Z,33.20
2022-08-02T16:26:30.926Z,33.00
2022-08-02T16:28:58.622Z,32.50
2022-08-02T16:31:25.899Z,32.40
2022-08-02T16:33:56.464Z,32.30
2022-08-02T16:36:24.271Z,32.10
2022-08-02T16:38:51.486Z,32.30
2022-08-02T16:41:18.755Z,32.40
2022-08-02T16:43:45.966Z,32.40
2022-08-02T16:46:13.442Z,32.30
2022-08-02T16:48:40.672Z,32.20
2022-08-02T16:51:13.498Z,32.20
2022-08-02T16:53:59.737Z,32.00
2022-08-02T16:56:28.618Z,32.00
2022-08-02T16:58:59.614Z,31.60
2022-08-02T17:02:02.182Z,31.20
2022-08-02T17:04:15.405Z,30.70
2022-08-02T17:06:47.664Z,30.80
2022-08-02T17:10:03.583Z,30.90
2022-08-02T17:12:07.610Z,31.20
2022-08-02T17:14:55.561Z,31.00
2022-08-02T17:17:33.706Z,30.90
2022-08-02T17:20:05.510Z,31.10
2022-08-02T17:22:32.984Z,31.00
2022-08-02T17:25:04.574Z,31.20
2022-08-02T17:27:31.761Z,31.00
2022-08-02T17:30:00.250Z,31.20
2022-08-02T17:32:29.181Z,31.00
2022-08-02T17:35:00.225Z,30.70
2022-08-02T17:37:31.797Z,30.70
2022-08-02T17:39:59.910Z,30.60
2022-08-02T17:42:27.149Z,30.40
2022-08-02T17:44:55.207Z,30.00
2022-08-02T17:47:33.955Z,30.10
2022-08-02T17:50:09.948Z,30.20
2022-08-02T17:52:50.912Z,30.30
2022-08-02T17:55:20.685Z,30.10
2022-08-02T17:57:57.044Z,30.00
2022-08-02T18:00:36.053Z,29.90
2022-08-02T18:03:06.031Z,29.80
2022-08-02T18:05:41.593Z,29.70
2022-08-02T18:08:22.892Z,29.60
2022-08-02T18:10:51.446Z,29.30
2022-08-02T18:13:18.598Z,29.40
2022-08-02T18:15:45.979Z,29.30
2022-08-02T18:18:14.388Z,29.20
2022-08-02T18:20:42.040Z,29.00
2022-08-02T18:23:13.646Z,28.90
2022-08-02T18:25:46.690Z,28.90
2022-08-02T18:28:15.730Z,28.90
2022-08-02T18:30:43.435Z,28.80
2022-08-02T18:33:59.446Z,28.90
2022-08-02T18:35:57.914Z,28.90
2022-08-02T18:38:27.008Z,29.00
2022-08-02T18:40:55.273Z,29.00
2022-08-02T18:43:25.747Z,29.00
2022-08-02T18:46:07.218Z,28.90
2022-08-02T18:51:36.721Z,28.80
2022-08-02T18:54:04.185Z,29.00
2022-08-02T18:56:32.541Z,29.00
2022-08-02T18:58:59.983Z,28.90
2022-08-02T19:04:27.811Z,28.60
2022-08-02T19:06:55.975Z,28.50
2022-08-02T19:09:23.860Z,28.40
2022-08-02T19:11:51.047Z,28.50
2022-08-02T19:14:24.457Z,28.50
2022-08-02T19:16:59.530Z,28.40
2022-08-02T19:19:28.896Z,28.20
2022-08-02T19:22:18.911Z,28.20
2022-08-02T19:24:45.946Z,28.00
2022-08-02T19:27:14.612Z,28.00
2022-08-02T19:29:48.978Z,27.90
2022-08-02T19:32:40.550Z,27.80
2022-08-02T19:35:19.967Z,27.70
2022-08-02T19:37:52.447Z,27.50
2022-08-02T19:40:23.952Z,27.50
2022-08-02T19:44:24.724Z,27.50
2022-08-02T19:45:49.902Z,27.30
2022-08-02T19:48:24.176Z,27.40
2022-08-02T19:50:53.551Z,27.10
2022-08-02T19:53:24.440Z,27.00
2022-08-02T19:56:00.122Z,26.60
2022-08-02T19:58:30.298Z,26.40
2022-08-02T20:00:58.208Z,26.70
2022-08-02T20:03:50.843Z,26.70
2022-08-02T20:06:13.749Z,27.00
2022-08-02T20:08:43.124Z,27.00
2022-08-02T20:11:23.316Z,26.70
2022-08-02T20:13:52.217Z,27.00
2022-08-02T20:16:27.545Z,27.00
2022-08-02T20:18:56.275Z,26.80
2022-08-02T20:21:34.353Z,26.80
2022-08-02T20:24:05.661Z,26.80
2022-08-02T20:26:32.939Z,26.70
2022-08-02T20:29:05.769Z,26.50
2022-08-02T20:31:35.619Z,26.50
2022-08-02T20:34:04.521Z,26.30
2022-08-02T20:36:34.398Z,26.20
2022-08-02T20:39:01.533Z,26.10
2022-08-02T20:41:36.847Z,26.20
2022-08-02T20:44:16.249Z,26.20
2022-08-02T20:46:59.035Z,26.00
2022-08-02T20:49:40.360Z,26.10
2022-08-02T20:52:24.049Z,26.30
2022-08-02T20:54:52.573Z,26.10
2022-08-02T20:57:19.747Z,26.20
2022-08-02T21:00:07.484Z,26.20
2022-08-02T21:02:34.683Z,26.10
2022-08-02T21:05:07.697Z,26.10
2022-08-02T21:07:42.486Z,26.20
2022-08-02T21:10:15.162Z,26.20
2022-08-02T21:12:42.566Z,26.30
2022-08-02T21:15:12.696Z,26.40
2022-08-02T21:17:45.129Z,26.40
2022-08-02T21:20:20.567Z,26.30
2022-08-02T21:22:55.103Z,26.30
2022-08-02T21:25:42.361Z,26.30
2022-08-02T21:28:09.439Z,26.30
2022-08-02T21:30:45.094Z,26.40
2022-08-02T21:33:22.448Z,26.40
2022-08-02T21:35:52.179Z,26.40
2022-08-02T21:38:35.519Z,26.40
2022-08-02T21:41:06.114Z,26.40
2022-08-02T21:43:40.277Z,26.40
2022-08-02T21:46:10.980Z,25.90
2022-08-02T21:48:42.178Z,26.00
2022-08-02T21:51:09.426Z,26.00
2022-08-02T21:53:43.473Z,25.90
2022-08-02T21:56:30.616Z,26.00
2022-08-02T21:58:59.203Z,26.10
2022-08-02T22:01:28.451Z,26.00
2022-08-02T22:03:58.578Z,25.50
2022-08-02T22:06:25.813Z,25.60
2022-08-02T22:08:54.517Z,25.90
2022-08-02T22:11:23.319Z,25.80
2022-08-02T22:13:50.573Z,25.80
2022-08-02T22:16:18.319Z,25.80
2022-08-02T22:18:51.526Z,25.60
2022-08-02T22:21:20.545Z,25.50
2022-08-02T22:23:51.311Z,25.60
2022-08-02T22:26:19.427Z,25.90
2022-08-02T22:28:50.972Z,25.50
2022-08-02T22:31:41.301Z,25.10
2022-08-02T22:34:11.539Z,25.50
2022-08-02T22:36:54.572Z,25.50
2022-08-02T22:39:21.767Z,25.40
2022-08-02T22:42:05.929Z,25.40
2022-08-02T22:44:34.886Z,25.40
2022-08-02T22:47:07.272Z,25.50
2022-08-02T22:49:45.319Z,25.50
2022-08-02T22:52:20.903Z,25.50
2022-08-02T22:54:48.366Z,25.60
2022-08-02T22:57:15.544Z,25.40
2022-08-02T22:58:46.604Z,28.80
2022-08-02T22:58:59.610Z,28.90
2022-08-02T22:59:42.720Z,25.20
2022-08-02T23:02:10.019Z,25.40
2022-08-02T23:04:37.714Z,25.50
2022-08-02T23:07:04.946Z,25.50
2022-08-02T23:09:32.290Z,25.40
2022-08-02T23:11:59.428Z,25.30
2022-08-02T23:14:26.575Z,25.40
2022-08-02T23:17:12.477Z,25.40
2022-08-02T23:19:51.401Z,25.30
2022-08-02T23:22:20.571Z,25.10
2022-08-02T23:24:48.010Z,25.20
2022-08-02T23:27:15.147Z,25.40
2022-08-02T23:29:42.286Z,25.40
2022-08-02T23:32:09.568Z,25.20
2022-08-02T23:34:36.744Z,25.30
2022-08-02T23:37:04.224Z,25.30
2022-08-02T23:39:32.120Z,24.80
2022-08-02T23:41:59.278Z,24.40
2022-08-02T23:44:26.692Z,24.40
2022-08-02T23:46:54.233Z,24.70
2022-08-02T23:49:21.747Z,24.50
2022-08-02T23:51:49.408Z,24.60
2022-08-02T23:54:16.796Z,24.50
2022-08-02T23:56:44.063Z,24.20
2022-08-02T23:59:11.258Z,24.20
